createdAt,value
2018-09-20T00:00:46.993Z,959.88
2018-09-20T00:03:13.304Z,959.82
2018-09-20T00:05:39.615Z,959.88
2018-09-20T00:08:05.935Z,959.82
2018-09-20T00:10:32.251Z,959.81
2018-09-20T00:12:58.574Z,959.78
2018-09-20T00:15:24.896Z,959.75
2018-09-20T00:17:51.209Z,959.71
2018-09-20T00:20:17.529Z,959.72
2018-09-20T00:22:43.844Z,959.78
2018-09-20T00:25:10.167Z,959.73
2018-09-20T00:27:36.481Z,959.71
2018-09-20T00:30:02.797Z,959.72
2018-09-20T00:32:29.111Z,959.76
2018-09-20T00:34:55.423Z,959.70
2018-09-20T00:37:21.737Z,959.72
2018-09-20T00:39:48.052Z,959.75
2018-09-20T00:42:14.356Z,959.77
2018-09-20T00:44:40.667Z,959.81
2018-09-20T00:47:06.982Z,959.75
2018-09-20T00:49:33.298Z,959.73
2018-09-20T00:51:59.606Z,959.72
2018-09-20T00:54:25.932Z,959.75
2018-09-20T00:56:52.243Z,959.68
2018-09-20T00:59:18.557Z,959.68
2018-09-20T01:01:44.878Z,959.68
2018-09-20T01:04:11.193Z,959.65
2018-09-20T01:06:37.509Z,959.71
2018-09-20T01:09:03.825Z,959.71
2018-09-20T01:11:30.146Z,959.63
2018-09-20T01:13:56.465Z,959.67
2018-09-20T01:16:22.776Z,959.75
2018-09-20T01:18:49.087Z,959.73
2018-09-20T01:21:15.402Z,959.72
2018-09-20T01:23:41.711Z,959.69
2018-09-20T01:26:08.031Z,959.64
2018-09-20T01:28:34.347Z,959.70
2018-09-20T01:31:00.662Z,959.73
2018-09-20T01:33:26.983Z,959.72
2018-09-20T01:35:53.305Z,959.75
2018-09-20T01:38:19.617Z,959.73
2018-09-20T01:40:45.926Z,959.80
2018-09-20T01:43:12.235Z,959.82
2018-09-20T01:45:38.560Z,959.89
2018-09-20T01:48:04.885Z,959.93
2018-09-20T01:50:31.200Z,959.93
2018-09-20T01:52:57.518Z,959.92
2018-09-20T01:55:23.827Z,959.95
2018-09-20T01:57:50.156Z,959.90
2018-09-20T02:00:16.461Z,959.91
2018-09-20T02:02:42.777Z,959.90
2018-09-20T02:05:09.135Z,959.93
2018-09-20T02:07:35.443Z,959.94
2018-09-20T02:10:01.758Z,959.95
2018-09-20T02:12:28.082Z,959.90
2018-09-20T02:14:54.383Z,959.93
2018-09-20T02:17:20.703Z,959.94
2018-09-20T02:19:47.019Z,959.91
2018-09-20T02:22:13.338Z,959.91
2018-09-20T02:24:39.654Z,959.91
2018-09-20T02:27:05.969Z,959.91
2018-09-20T02:29:32.286Z,959.93
2018-09-20T02:31:58.601Z,959.95
2018-09-20T02:34:24.919Z,959.98
2018-09-20T02:36:51.240Z,959.95
2018-09-20T02:39:17.558Z,959.92
2018-09-20T02:41:43.874Z,959.92
2018-09-20T02:44:10.197Z,959.94
2018-09-20T02:46:36.514Z,959.90
2018-09-20T02:49:02.842Z,959.94
2018-09-20T02:51:29.151Z,959.91
2018-09-20T02:53:55.467Z,959.92
2018-09-20T02:56:21.781Z,959.98
2018-09-20T02:58:48.170Z,960.01
2018-09-20T03:01:14.456Z,960.03
2018-09-20T03:03:40.732Z,960.07
2018-09-20T03:06:07.060Z,960.08
2018-09-20T03:08:33.379Z,960.06
2018-09-20T03:10:59.704Z,960.09
2018-09-20T03:13:26.026Z,960.04
2018-09-20T03:15:52.345Z,960.07
2018-09-20T03:18:18.687Z,960.11
2018-09-20T03:20:45.032Z,960.02
2018-09-20T03:23:11.345Z,960.08
2018-09-20T03:25:37.662Z,960.06
2018-09-20T03:28:03.975Z,960.09
2018-09-20T03:30:30.385Z,960.12
2018-09-20T03:32:56.619Z,960.06
2018-09-20T03:35:22.934Z,960.09
2018-09-20T03:37:49.250Z,960.08
2018-09-20T03:40:15.570Z,960.12
2018-09-20T03:42:41.894Z,960.11
2018-09-20T03:45:08.210Z,960.16
2018-09-20T03:47:34.532Z,960.11
2018-09-20T03:50:00.847Z,960.14
2018-09-20T03:52:27.166Z,960.14
2018-09-20T03:54:53.485Z,960.20
2018-09-20T03:57:19.802Z,960.18
2018-09-20T03:59:46.114Z,960.19
2018-09-20T04:02:12.432Z,960.17
2018-09-20T04:04:38.785Z,960.16
2018-09-20T04:07:05.120Z,960.13
2018-09-20T04:09:31.467Z,960.16
2018-09-20T04:11:57.743Z,960.18
2018-09-20T04:14:24.064Z,960.19
2018-09-20T04:16:50.381Z,960.18
2018-09-20T04:19:16.693Z,960.22
2018-09-20T04:21:43.007Z,960.18
2018-09-20T04:24:09.325Z,960.20
2018-09-20T04:26:35.641Z,960.14
2018-09-20T04:29:01.958Z,960.18
2018-09-20T04:31:28.272Z,960.15
2018-09-20T04:33:54.575Z,960.20
2018-09-20T04:36:20.896Z,960.12
2018-09-20T04:38:47.212Z,960.12
2018-09-20T04:41:13.529Z,960.09
2018-09-20T04:43:39.847Z,960.10
2018-09-20T04:46:06.166Z,960.08
2018-09-20T04:48:32.475Z,960.11
2018-09-20T04:50:58.787Z,960.15
2018-09-20T04:53:25.109Z,960.18
2018-09-20T04:55:51.419Z,960.09
2018-09-20T04:58:17.768Z,960.07
2018-09-20T05:00:44.051Z,960.04
2018-09-20T05:03:10.359Z,960.08
2018-09-20T05:05:36.674Z,960.04
2018-09-20T05:08:02.979Z,960.03
2018-09-20T05:10:29.293Z,960.07
2018-09-20T05:12:55.598Z,960.09
2018-09-20T05:15:21.919Z,960.07
2018-09-20T05:17:48.230Z,959.99
2018-09-20T05:20:14.608Z,960.04
2018-09-20T05:22:40.864Z,960.03
2018-09-20T05:25:07.191Z,960.03
2018-09-20T05:27:33.552Z,960.03
2018-09-20T05:29:59.860Z,960.02
2018-09-20T05:32:26.179Z,960.02
2018-09-20T05:34:52.535Z,960.02
2018-09-20T05:37:18.856Z,959.93
2018-09-20T05:39:45.167Z,960.04
2018-09-20T05:42:11.487Z,960.01
2018-09-20T05:44:37.807Z,959.97
2018-09-20T05:47:04.122Z,959.92
2018-09-20T05:49:30.443Z,959.91
2018-09-20T05:51:56.805Z,959.85
2018-09-20T05:54:23.131Z,959.93
2018-09-20T05:56:49.440Z,959.97
2018-09-20T05:59:15.779Z,959.96
2018-09-20T06:01:42.078Z,959.97
2018-09-20T06:04:08.393Z,960.01
2018-09-20T06:06:34.711Z,959.97
2018-09-20T06:09:01.028Z,959.95
2018-09-20T06:11:27.335Z,959.90
2018-09-20T06:13:53.654Z,959.94
2018-09-20T06:16:19.969Z,959.88
2018-09-20T06:18:46.322Z,959.94
2018-09-20T06:21:12.631Z,959.87
2018-09-20T06:23:38.993Z,959.81
2018-09-20T06:26:05.344Z,959.80
2018-09-20T06:28:31.700Z,959.87
2018-09-20T06:30:58.047Z,959.90
2018-09-20T06:33:24.369Z,959.91
2018-09-20T06:35:50.688Z,959.84
2018-09-20T06:38:17.049Z,959.89
2018-09-20T06:40:43.377Z,959.84
2018-09-20T06:43:09.689Z,959.92
2018-09-20T06:45:36.007Z,959.97
2018-09-20T06:48:02.316Z,959.95
2018-09-20T06:50:28.671Z,959.91
2018-09-20T06:52:54.945Z,959.92
2018-09-20T06:55:21.310Z,959.97
2018-09-20T06:57:47.623Z,959.92
2018-09-20T07:00:13.998Z,959.95
2018-09-20T07:02:40.315Z,960.00
2018-09-20T07:05:06.665Z,960.00
2018-09-20T07:07:32.969Z,960.01
2018-09-20T07:09:59.290Z,960.05
2018-09-20T07:12:25.630Z,959.99
2018-09-20T07:14:51.984Z,959.99
2018-09-20T07:17:18.293Z,960.02
2018-09-20T07:19:44.612Z,960.02
2018-09-20T07:22:10.931Z,960.02
2018-09-20T07:24:37.364Z,959.97
2018-09-20T07:27:03.693Z,959.95
2018-09-20T07:29:30.013Z,959.97
2018-09-20T07:34:22.651Z,959.99
2018-09-20T07:36:48.965Z,959.99
2018-09-20T07:39:15.287Z,959.92
2018-09-20T07:41:41.610Z,959.88
2018-09-20T07:44:07.931Z,959.83
2018-09-20T07:46:34.235Z,959.87
2018-09-20T07:49:00.555Z,959.82
2018-09-20T07:51:26.868Z,959.81
2018-09-20T07:53:53.248Z,959.74
2018-09-20T07:56:19.530Z,959.78
2018-09-20T07:58:45.909Z,959.76
2018-09-20T08:01:12.215Z,959.76
2018-09-20T08:03:38.523Z,959.72
2018-09-20T08:06:04.851Z,959.74
2018-09-20T08:08:31.159Z,959.70
2018-09-20T08:10:57.472Z,959.66
2018-09-20T08:13:23.798Z,959.53
2018-09-20T08:15:50.541Z,959.52
2018-09-20T08:18:16.864Z,959.48
2018-09-20T08:20:43.179Z,959.50
2018-09-20T08:23:09.543Z,959.49
2018-09-20T08:25:35.898Z,959.50
2018-09-20T08:28:02.247Z,959.45
2018-09-20T08:30:28.606Z,959.52
2018-09-20T08:32:54.957Z,959.41
2018-09-20T08:35:21.270Z,959.40
2018-09-20T08:37:47.679Z,959.38
2018-09-20T08:40:13.903Z,959.37
2018-09-20T08:42:40.213Z,959.35
2018-09-20T08:45:06.533Z,959.33
2018-09-20T08:47:32.856Z,959.25
2018-09-20T08:49:59.213Z,959.24
2018-09-20T08:52:25.531Z,959.26
2018-09-20T08:54:51.849Z,959.22
2018-09-20T08:57:18.209Z,959.28
2018-09-20T08:59:44.525Z,959.19
2018-09-20T09:02:10.855Z,959.17
2018-09-20T09:04:37.206Z,959.12
2018-09-20T09:07:03.530Z,959.12
2018-09-20T09:09:29.846Z,959.11
2018-09-20T09:11:56.209Z,959.06
2018-09-20T09:14:22.482Z,959.07
2018-09-20T09:16:48.799Z,958.99
2018-09-20T09:19:15.116Z,958.94
2018-09-20T09:21:41.424Z,958.99
2018-09-20T09:24:07.741Z,958.97
2018-09-20T09:26:34.091Z,958.92
2018-09-20T09:29:00.409Z,958.97
2018-09-20T09:31:26.728Z,958.92
2018-09-20T09:33:53.040Z,958.96
2018-09-20T09:36:19.354Z,958.86
2018-09-20T09:38:45.669Z,958.91
2018-09-20T09:41:11.981Z,958.85
2018-09-20T09:43:38.298Z,958.79
2018-09-20T09:46:04.605Z,958.71
2018-09-20T09:48:30.950Z,958.61
2018-09-20T09:50:57.259Z,958.53
2018-09-20T09:53:23.575Z,958.50
2018-09-20T09:55:49.886Z,958.49
2018-09-20T09:58:16.202Z,958.45
2018-09-20T10:00:42.516Z,958.49
2018-09-20T10:03:08.824Z,958.40
2018-09-20T10:05:35.177Z,958.38
2018-09-20T10:08:01.498Z,958.41
2018-09-20T10:10:27.808Z,958.39
2018-09-20T10:12:54.130Z,958.36
2018-09-20T10:15:20.484Z,958.28
2018-09-20T10:17:46.815Z,958.32
2018-09-20T10:20:13.125Z,958.29
2018-09-20T10:22:39.448Z,958.28
2018-09-20T10:25:05.758Z,958.21
2018-09-20T10:27:32.074Z,958.28
2018-09-20T10:29:58.392Z,958.23
2018-09-20T10:32:24.710Z,958.32
2018-09-20T10:34:51.024Z,958.28
2018-09-20T10:37:17.359Z,958.16
2018-09-20T10:39:43.676Z,958.13
2018-09-20T10:42:10.035Z,958.11
2018-09-20T10:44:36.404Z,958.04
2018-09-20T10:47:02.727Z,957.93
2018-09-20T10:49:29.066Z,957.94
2018-09-20T10:51:55.387Z,957.96
2018-09-20T10:54:21.701Z,957.89
2018-09-20T10:56:48.011Z,957.88
2018-09-20T10:59:14.359Z,957.87
2018-09-20T11:01:40.665Z,957.95
2018-09-20T11:04:06.983Z,957.87
2018-09-20T11:06:33.708Z,957.81
2018-09-20T11:09:00.025Z,957.79
2018-09-20T11:11:26.338Z,957.90
2018-09-20T11:13:52.687Z,957.73
2018-09-20T11:16:19.041Z,957.80
2018-09-20T11:18:45.362Z,957.70
2018-09-20T11:21:11.673Z,957.69
2018-09-20T11:23:37.987Z,957.67
2018-09-20T11:26:04.364Z,957.61
2018-09-20T11:28:30.696Z,957.56
2018-09-20T11:30:57.008Z,957.60
2018-09-20T11:33:23.321Z,957.52
2018-09-20T11:35:49.649Z,957.66
2018-09-20T11:38:15.980Z,957.53
2018-09-20T11:40:42.311Z,957.53
2018-09-20T11:43:08.644Z,957.46
2018-09-20T11:45:34.961Z,957.46
2018-09-20T11:48:01.292Z,957.51
2018-09-20T11:50:27.608Z,957.34
2018-09-20T11:52:53.933Z,957.39
2018-09-20T11:55:20.268Z,957.39
2018-09-20T11:57:46.580Z,957.36
2018-09-20T12:00:12.891Z,957.31
2018-09-20T12:02:39.229Z,957.34
2018-09-20T12:05:05.559Z,957.23
2018-09-20T12:07:31.865Z,957.28
2018-09-20T12:09:58.205Z,957.22
2018-09-20T12:12:24.523Z,957.27
2018-09-20T12:14:50.858Z,957.17
2018-09-20T12:17:17.168Z,957.18
2018-09-20T12:19:43.515Z,957.19
2018-09-20T12:22:09.825Z,957.15
2018-09-20T12:24:36.136Z,957.09
2018-09-20T12:27:02.448Z,957.08
2018-09-20T12:29:28.785Z,957.06
2018-09-20T12:31:55.150Z,957.04
2018-09-20T12:34:21.475Z,956.92
2018-09-20T12:36:47.795Z,956.95
2018-09-20T12:39:14.103Z,956.91
2018-09-20T12:41:40.418Z,956.80
2018-09-20T12:44:06.774Z,956.84
2018-09-20T12:46:33.069Z,956.82
2018-09-20T12:48:59.376Z,956.81
2018-09-20T12:51:25.720Z,956.80
2018-09-20T12:53:52.063Z,956.82
2018-09-20T12:56:18.397Z,956.82
2018-09-20T12:58:44.728Z,956.78
2018-09-20T13:01:11.035Z,956.77
2018-09-20T13:03:37.349Z,956.74
2018-09-20T13:06:03.651Z,956.78
2018-09-20T13:08:29.985Z,956.81
2018-09-20T13:10:56.353Z,956.72
2018-09-20T13:13:22.661Z,956.72
2018-09-20T13:15:48.973Z,956.71
2018-09-20T13:18:15.311Z,956.65
2018-09-20T13:20:41.661Z,956.68
2018-09-20T13:23:07.973Z,956.67
2018-09-20T13:25:34.396Z,956.65
2018-09-20T13:28:00.743Z,956.60
2018-09-20T13:30:27.077Z,956.63
2018-09-20T13:32:53.401Z,956.62
2018-09-20T13:35:19.736Z,956.56
2018-09-20T13:37:46.111Z,956.50
2018-09-20T13:40:12.424Z,956.58
2018-09-20T13:42:38.760Z,956.63
2018-09-20T13:45:05.081Z,956.66
2018-09-20T13:47:31.417Z,956.61
2018-09-20T13:49:57.787Z,956.57
2018-09-20T13:52:24.123Z,956.53
2018-09-20T13:54:50.433Z,956.57
2018-09-20T13:57:16.764Z,956.56
2018-09-20T13:59:43.106Z,956.54
2018-09-20T14:02:09.427Z,956.49
2018-09-20T14:04:35.740Z,956.61
2018-09-20T14:07:02.054Z,956.54
2018-09-20T14:09:28.378Z,956.49
2018-09-20T14:11:54.687Z,956.48
2018-09-20T14:14:20.999Z,956.49
2018-09-20T14:16:47.333Z,956.46
2018-09-20T14:19:13.670Z,956.45
2018-09-20T14:21:39.996Z,956.42
2018-09-20T14:24:06.328Z,956.44
2018-09-20T14:26:32.661Z,956.41
2018-09-20T14:28:58.973Z,956.48
2018-09-20T14:31:25.309Z,956.42
2018-09-20T14:33:51.632Z,956.46
2018-09-20T14:36:18.117Z,956.47
2018-09-20T14:38:44.445Z,956.51
2018-09-20T14:41:10.756Z,956.52
2018-09-20T14:43:37.092Z,956.50
2018-09-20T14:46:03.429Z,956.53
2018-09-20T14:48:29.761Z,956.54
2018-09-20T14:50:56.097Z,956.56
2018-09-20T14:53:22.412Z,956.53
2018-09-20T14:55:48.728Z,956.55
2018-09-20T14:58:15.094Z,956.62
2018-09-20T15:00:41.416Z,956.64
2018-09-20T15:03:07.740Z,956.57
2018-09-20T15:05:34.054Z,956.64
2018-09-20T15:08:00.441Z,956.68
2018-09-20T15:10:26.705Z,956.67
2018-09-20T15:12:53.047Z,956.70
2018-09-20T15:15:19.377Z,956.72
2018-09-20T15:17:45.718Z,956.65
2018-09-20T15:20:12.043Z,956.68
2018-09-20T15:22:38.376Z,956.73
2018-09-20T15:25:04.759Z,956.72
2018-09-20T15:27:31.091Z,956.76
2018-09-20T15:29:57.420Z,956.80
2018-09-20T15:32:23.765Z,956.83
2018-09-20T15:34:50.049Z,956.81
2018-09-20T15:37:16.360Z,956.85
2018-09-20T15:39:42.709Z,956.81
2018-09-20T15:42:09.040Z,956.82
2018-09-20T15:44:35.418Z,956.85
2018-09-20T15:47:01.753Z,956.90
2018-09-20T15:49:28.065Z,956.90
2018-09-20T15:51:54.403Z,956.90
2018-09-20T15:54:20.713Z,956.90
2018-09-20T15:56:47.020Z,956.94
2018-09-20T15:59:13.333Z,956.94
2018-09-20T16:01:39.680Z,956.96
2018-09-20T16:04:06.243Z,957.01
2018-09-20T16:06:32.579Z,956.99
2018-09-20T16:08:58.883Z,957.06
2018-09-20T16:11:25.197Z,957.06
2018-09-20T16:13:51.504Z,957.00
2018-09-20T16:16:17.838Z,957.10
2018-09-20T16:18:44.147Z,957.02
2018-09-20T16:21:10.499Z,957.09
2018-09-20T16:23:36.846Z,957.07
2018-09-20T16:26:03.136Z,957.03
2018-09-20T16:28:29.457Z,957.13
2018-09-20T16:30:55.759Z,957.08
2018-09-20T16:33:22.066Z,957.11
2018-09-20T16:35:48.401Z,957.14
2018-09-20T16:38:14.754Z,957.16
2018-09-20T16:40:41.089Z,957.13
2018-09-20T16:43:07.439Z,957.16
2018-09-20T16:45:33.773Z,957.19
2018-09-20T16:48:00.083Z,957.16
2018-09-20T16:50:26.424Z,957.24
2018-09-20T16:52:52.809Z,957.21
2018-09-20T16:55:19.069Z,957.28
2018-09-20T16:57:45.402Z,957.29
2018-09-20T17:00:13.204Z,957.32
2018-09-20T17:02:39.525Z,957.37
2018-09-20T17:05:05.887Z,957.41
2018-09-20T17:07:32.183Z,957.43
2018-09-20T17:09:58.474Z,957.48
2018-09-20T17:12:24.832Z,957.52
2018-09-20T17:14:51.210Z,957.60
2018-09-20T17:17:17.503Z,957.57
2018-09-20T17:19:43.825Z,957.59
2018-09-20T17:22:10.131Z,957.63
2018-09-20T17:24:36.447Z,957.63
2018-09-20T17:27:02.762Z,957.74
2018-09-20T17:29:29.073Z,957.69
2018-09-20T17:31:55.387Z,957.65
2018-09-20T17:34:21.722Z,957.71
2018-09-20T17:36:48.065Z,957.72
2018-09-20T17:39:14.390Z,957.80
2018-09-20T17:41:40.719Z,957.79
2018-09-20T17:44:07.041Z,957.85
2018-09-20T17:46:33.356Z,957.85
2018-09-20T17:48:59.692Z,957.88
2018-09-20T17:51:26.019Z,957.87
2018-09-20T17:53:52.384Z,957.92
2018-09-20T17:56:18.655Z,957.89
2018-09-20T17:58:44.967Z,957.85
2018-09-20T18:01:11.285Z,957.98
2018-09-20T18:03:37.597Z,957.90
2018-09-20T18:06:03.919Z,957.94
2018-09-20T18:08:30.273Z,958.01
2018-09-20T18:10:56.676Z,958.05
2018-09-20T18:13:22.991Z,958.05
2018-09-20T18:15:49.303Z,958.04
2018-09-20T18:18:15.670Z,958.08
2018-09-20T18:20:41.939Z,958.13
2018-09-20T18:23:08.256Z,958.15
2018-09-20T18:25:34.584Z,958.14
2018-09-20T18:28:00.891Z,958.17
2018-09-20T18:30:27.212Z,958.21
2018-09-20T18:32:53.519Z,958.09
2018-09-20T18:35:19.835Z,958.14
2018-09-20T18:37:46.184Z,958.11
2018-09-20T18:40:12.549Z,958.16
2018-09-20T18:42:38.989Z,958.18
2018-09-20T18:45:05.223Z,958.18
2018-09-20T18:47:31.552Z,958.23
2018-09-20T18:49:57.870Z,958.15
2018-09-20T18:52:24.203Z,958.24
2018-09-20T18:54:50.516Z,958.17
2018-09-20T18:57:16.838Z,958.16
2018-09-20T18:59:43.168Z,958.12
2018-09-20T19:02:09.479Z,958.13
2018-09-20T19:04:35.846Z,958.19
2018-09-20T19:07:02.170Z,958.13
2018-09-20T19:09:28.494Z,958.10
2018-09-20T19:11:54.813Z,958.05
2018-09-20T19:14:21.123Z,958.07
2018-09-20T19:16:47.442Z,958.13
2018-09-20T19:19:13.798Z,958.07
2018-09-20T19:21:40.121Z,958.10
2018-09-20T19:24:06.428Z,958.16
2018-09-20T19:26:32.742Z,958.16
2018-09-20T19:28:59.058Z,958.20
2018-09-20T19:31:25.372Z,958.13
2018-09-20T19:33:51.695Z,958.13
2018-09-20T19:36:18.015Z,958.16
2018-09-20T19:38:44.355Z,958.09
2018-09-20T19:41:10.678Z,958.11
2018-09-20T19:43:49.107Z,958.12
2018-09-20T19:46:15.468Z,958.10
2018-09-20T19:48:41.786Z,958.11
2018-09-20T19:51:08.100Z,958.09
2018-09-20T19:53:34.434Z,958.10
2018-09-20T19:56:00.752Z,958.14
2018-09-20T19:58:27.063Z,958.16
2018-09-20T20:00:53.403Z,958.10
2018-09-20T20:03:19.717Z,958.10
2018-09-20T20:05:46.028Z,958.09
2018-09-20T20:08:12.348Z,958.07
2018-09-20T20:10:38.662Z,958.10
2018-09-20T20:13:04.964Z,958.12
2018-09-20T20:15:31.285Z,958.15
2018-09-20T20:17:57.615Z,958.19
2018-09-20T20:20:23.960Z,958.23
2018-09-20T20:22:50.265Z,958.22
2018-09-20T20:25:16.573Z,958.21
2018-09-20T20:27:42.929Z,958.24
2018-09-20T20:30:09.215Z,958.25
2018-09-20T20:32:35.557Z,958.24
2018-09-20T20:35:01.862Z,958.27
2018-09-20T20:37:28.204Z,958.25
2018-09-20T20:39:54.549Z,958.28
2018-09-20T20:42:20.839Z,958.28
2018-09-20T20:44:47.199Z,958.23
2018-09-20T20:47:13.532Z,958.27
2018-09-20T20:49:39.885Z,958.23
2018-09-20T20:52:06.216Z,958.23
2018-09-20T20:54:32.532Z,958.23
2018-09-20T20:56:58.874Z,958.24
2018-09-20T20:59:25.193Z,958.28
2018-09-20T21:01:51.523Z,958.27
2018-09-20T21:04:17.870Z,958.23
2018-09-20T21:06:44.200Z,958.29
2018-09-20T21:09:10.522Z,958.26
2018-09-20T21:11:36.832Z,958.23
2018-09-20T21:14:03.142Z,958.30
2018-09-20T21:16:29.473Z,958.30
2018-09-20T21:18:55.813Z,958.28
2018-09-20T21:21:22.125Z,958.26
2018-09-20T21:23:48.440Z,958.27
2018-09-20T21:26:14.812Z,958.23
2018-09-20T21:28:41.159Z,958.27
2018-09-20T21:31:07.477Z,958.26
2018-09-20T21:33:33.789Z,958.24
2018-09-20T21:36:00.097Z,958.33
2018-09-20T21:38:26.416Z,958.31
2018-09-20T21:40:52.788Z,958.35
2018-09-20T21:43:19.109Z,958.34
2018-09-20T21:45:45.433Z,958.33
2018-09-20T21:48:11.747Z,958.41
2018-09-20T21:50:38.068Z,958.35
2018-09-20T21:53:04.391Z,958.33
2018-09-20T21:55:30.707Z,958.27
2018-09-20T21:57:57.028Z,958.29
2018-09-20T22:00:23.354Z,958.24
2018-09-20T22:02:49.658Z,958.32
2018-09-20T22:05:15.961Z,958.30
2018-09-20T22:07:42.268Z,958.22
2018-09-20T22:10:08.572Z,958.30
2018-09-20T22:12:34.867Z,958.26
2018-09-20T22:15:01.172Z,958.25
2018-09-20T22:17:27.474Z,958.24
2018-09-20T22:19:53.776Z,958.32
2018-09-20T22:22:20.080Z,958.24
2018-09-20T22:24:46.392Z,958.19
2018-09-20T22:27:12.685Z,958.14
2018-09-20T22:29:39.028Z,958.19
2018-09-20T22:32:05.297Z,958.17
2018-09-20T22:34:31.593Z,958.22
2018-09-20T22:36:57.889Z,958.23
2018-09-20T22:39:24.204Z,958.19
2018-09-20T22:41:50.506Z,958.17
2018-09-20T22:44:16.809Z,958.12
2018-09-20T22:46:43.105Z,958.09
2018-09-20T22:49:09.415Z,958.15
2018-09-20T22:51:35.713Z,958.09
2018-09-20T22:54:02.010Z,958.07
2018-09-20T22:56:28.305Z,958.04
2018-09-20T22:58:54.639Z,958.00
2018-09-20T23:01:20.952Z,958.05
2018-09-20T23:03:47.252Z,958.08
2018-09-20T23:06:13.581Z,957.98
2018-09-20T23:08:39.898Z,957.97
2018-09-20T23:11:06.186Z,957.95
2018-09-20T23:13:32.472Z,957.97
2018-09-20T23:15:58.771Z,957.96
2018-09-20T23:18:25.066Z,957.98
2018-09-20T23:20:51.374Z,957.93
2018-09-20T23:23:17.669Z,957.99
2018-09-20T23:25:43.969Z,957.97
2018-09-20T23:28:10.316Z,957.94
2018-09-20T23:30:36.611Z,957.97
2018-09-20T23:33:02.904Z,957.95
2018-09-20T23:35:29.209Z,957.95
2018-09-20T23:37:57.637Z,957.97
2018-09-20T23:40:21.818Z,958.01
2018-09-20T23:42:48.115Z,957.98
2018-09-20T23:45:14.455Z,958.00
2018-09-20T23:47:40.757Z,957.96
2018-09-20T23:50:07.078Z,958.00
2018-09-20T23:52:33.398Z,957.95
2018-09-20T23:54:59.721Z,957.96
2018-09-20T23:57:26.028Z,957.99
2018-09-20T23:59:52.345Z,958.00
